Time;durP1;ratioP1;P1;durP2;ratioP2;P2;SDS_P1;SDS_P2;PMS_P1;PMS_P2;Temp;Humidity;BMP_temperature;BMP_pressure;BME280_temperature;BME280_humidity;BME280_pressure;Samples;Min_cycle;Max_cycle;Signal;HPM_P1;HPM_P2
2023/01/30 00:04:03;;;;;;;24.92;10.25;;;;;;;;;;10489726;28;20063;-74
2023/01/30 00:09:05;;;;;;;18.60;6.60;;;;;;;;;;10497209;28;20490;-74
2023/01/30 00:14:09;;;;;;;13.07;5.67;;;;;;;;;;10485431;28;20525;-74
2023/01/30 00:19:12;;;;;;;25.35;8.88;;;;;;;;;;10489534;28;20032;-75
2023/01/30 00:24:15;;;;;;;16.13;4.57;;;;;;;;;;10484168;28;20040;-75
2023/01/30 00:29:19;;;;;;;9.63;3.37;;;;;;;;;;10486953;28;20048;-75
2023/01/30 00:34:22;;;;;;;21.85;8.05;;;;;;;;;;10478460;28;20051;-75
2023/01/30 00:39:24;;;;;;;19.27;6.97;;;;;;;;;;10487043;28;20032;-74
2023/01/30 00:49:48;;;;;;;23.87;9.10;;;;;;;;;;10484490;28;20041;-75
2023/01/30 00:54:51;;;;;;;9.70;3.80;;;;;;;;;;10485432;28;20082;-76
2023/01/30 00:59:56;;;;;;;16.50;5.67;;;;;;;;;;10490793;28;20444;-74
2023/01/30 01:04:58;;;;;;;25.57;9.07;;;;;;;;;;10483456;28;20055;-73
2023/01/30 01:10:01;;;;;;;7.23;3.63;;;;;;;;;;10488287;28;20068;-75
2023/01/30 01:15:06;;;;;;;17.73;5.27;;;;;;;;;;10467841;28;20060;-74
2023/01/30 01:20:09;;;;;;;21.57;7.33;;;;;;;;;;10482689;28;20040;-75
2023/01/30 01:25:12;;;;;;;29.00;8.87;;;;;;;;;;10477759;28;20056;-75
2023/01/30 01:30:17;;;;;;;10.13;3.97;;;;;;;;;;10475420;28;20037;-74
2023/01/30 01:35:20;;;;;;;10.27;4.23;;;;;;;;;;10483934;28;20408;-74
2023/01/30 01:45:48;;;;;;;20.10;7.23;;;;;;;;;;10482981;28;20095;-75
2023/01/30 01:50:53;;;;;;;13.10;5.13;;;;;;;;;;10477916;28;20029;-75
2023/01/30 01:55:58;;;;;;;32.57;9.73;;;;;;;;;;10490258;28;20047;-73
2023/01/30 02:01:02;;;;;;;2.90;1.20;;;;;;;;;;10493495;28;20496;-75
2023/01/30 02:06:05;;;;;;;26.42;10.18;;;;;;;;;;10476741;28;20087;-73
2023/01/30 02:11:09;;;;;;;11.70;5.43;;;;;;;;;;10490333;28;20067;-74
2023/01/30 02:16:12;;;;;;;;;;;;;;;;;;10493707;28;20041;-74
2023/01/30 02:21:36;;;;;;;11.00;4.27;;;;;;;;;;10477476;28;19947;-75
2023/01/30 02:26:54;;;;;;;22.53;6.37;;;;;;;;;;10458214;28;20191;-74
2023/01/30 02:32:03;;;;;;;12.67;5.00;;;;;;;;;;10496836;28;20040;-75
2023/01/30 02:37:15;;;;;;;21.80;9.27;;;;;;;;;;10487585;28;20539;-74
2023/01/30 02:42:20;;;;;;;14.73;6.13;;;;;;;;;;10483962;28;20033;-74
2023/01/30 02:47:27;;;;;;;18.73;6.27;;;;;;;;;;10492004;28;20489;-73
2023/01/30 02:52:31;;;;;;;22.80;6.93;;;;;;;;;;10490499;28;20041;-74
2023/01/30 02:57:33;;;;;;;18.57;5.63;;;;;;;;;;10488763;28;20037;-75
2023/01/30 03:02:50;;;;;;;33.80;11.13;;;;;;;;;;10490945;28;20041;-75
2023/01/30 03:08:03;;;;;;;15.20;4.37;;;;;;;;;;10495143;28;20094;-75
2023/01/30 03:13:09;;;;;;;17.10;5.93;;;;;;;;;;10488685;28;20047;-74
2023/01/30 03:18:12;;;;;;;29.73;10.70;;;;;;;;;;10488612;28;20040;-74
2023/01/30 03:23:16;;;;;;;21.77;7.47;;;;;;;;;;10485435;28;20048;-74
2023/01/30 03:28:20;;;;;;;25.63;7.57;;;;;;;;;;10488959;28;20058;-75
2023/01/30 03:33:23;;;;;;;27.58;10.70;;;;;;;;;;10488496;28;20066;-75
2023/01/30 03:38:27;;;;;;;34.43;12.77;;;;;;;;;;10486456;28;20040;-75
2023/01/30 03:43:30;;;;;;;33.28;9.25;;;;;;;;;;10490211;28;20044;-75
2023/01/30 03:48:32;;;;;;;37.33;12.70;;;;;;;;;;10488965;28;20060;-75
2023/01/30 03:53:36;;;;;;;22.47;6.80;;;;;;;;;;10490603;28;20362;-74
2023/01/30 03:58:39;;;;;;;40.85;12.27;;;;;;;;;;10475206;28;20040;-75
2023/01/30 04:03:42;;;;;;;26.50;8.60;;;;;;;;;;10485363;28;20231;-75
2023/01/30 04:08:45;;;;;;;24.03;8.20;;;;;;;;;;10491152;28;20041;-75
2023/01/30 04:13:48;;;;;;;27.17;8.40;;;;;;;;;;10482603;28;20044;-75
2023/01/30 04:18:51;;;;;;;25.60;8.90;;;;;;;;;;10487197;28;20393;-75
2023/01/30 04:23:55;;;;;;;22.60;7.10;;;;;;;;;;10481325;28;20044;-74
2023/01/30 04:28:57;;;;;;;33.13;9.85;;;;;;;;;;10496144;28;20032;-76
2023/01/30 04:34:00;;;;;;;35.40;10.17;;;;;;;;;;10485872;28;20395;-76
2023/01/30 04:39:04;;;;;;;33.10;10.80;;;;;;;;;;10482814;28;20040;-75
2023/01/30 04:44:07;;;;;;;26.63;9.85;;;;;;;;;;10479548;28;20390;-76
2023/01/30 04:49:10;;;;;;;24.23;8.07;;;;;;;;;;10492440;28;20416;-76
2023/01/30 04:54:14;;;;;;;41.73;12.13;;;;;;;;;;10490219;28;20140;-74
2023/01/30 04:59:17;;;;;;;27.67;7.20;;;;;;;;;;10496131;28;20044;-75
2023/01/30 05:04:20;;;;;;;26.80;8.87;;;;;;;;;;10481354;28;20036;-75
2023/01/30 05:09:24;;;;;;;22.63;9.23;;;;;;;;;;10463483;28;20048;-75
2023/01/30 05:14:27;;;;;;;21.13;7.45;;;;;;;;;;10484389;28;20066;-74
2023/01/30 05:19:30;;;;;;;28.10;9.50;;;;;;;;;;10487962;28;20139;-76
2023/01/30 05:24:35;;;;;;;19.27;6.80;;;;;;;;;;10484301;28;20059;-75
2023/01/30 05:29:38;;;;;;;30.27;11.27;;;;;;;;;;10488271;28;20081;-74
2023/01/30 05:34:41;;;;;;;25.97;9.47;;;;;;;;;;10485451;28;20098;-74
2023/01/30 05:39:45;;;;;;;16.90;5.53;;;;;;;;;;10501923;28;20055;-74
2023/01/30 05:44:47;;;;;;;;;;;;;;;;;;10492473;28;20064;-74
2023/01/30 05:49:51;;;;;;;31.73;11.60;;;;;;;;;;10504191;28;19920;-74
2023/01/30 05:54:55;;;;;;;28.73;10.27;;;;;;;;;;10484270;28;20045;-75
2023/01/30 05:59:58;;;;;;;;;;;;;;;;;;10489858;28;20142;-73
2023/01/30 06:05:00;;;;;;;35.07;14.17;;;;;;;;;;10486766;28;19973;-74
2023/01/30 06:10:04;;;;;;;25.03;8.83;;;;;;;;;;10479700;28;20044;-74
2023/01/30 06:15:08;;;;;;;18.20;6.17;;;;;;;;;;10471578;28;20557;-76
2023/01/30 06:20:11;;;;;;;14.30;4.85;;;;;;;;;;10485861;28;20040;-78
2023/01/30 06:25:16;;;;;;;17.63;6.67;;;;;;;;;;10479458;28;20037;-74
2023/01/30 06:30:19;;;;;;;27.00;7.57;;;;;;;;;;10488368;28;20037;-74
2023/01/30 06:35:22;;;;;;;11.80;4.33;;;;;;;;;;10483749;28;20063;-75
2023/01/30 06:40:26;;;;;;;31.50;10.17;;;;;;;;;;10479528;28;20503;-75
2023/01/30 06:45:28;;;;;;;;;;;;;;;;;;10493802;28;20501;-74
2023/01/30 06:50:31;;;;;;;28.20;10.70;;;;;;;;;;10487767;28;20437;-76
2023/01/30 06:55:35;;;;;;;19.33;6.37;;;;;;;;;;10486796;28;20194;-74
2023/01/30 07:00:39;;;;;;;26.77;8.77;;;;;;;;;;10478096;28;20408;-75
2023/01/30 07:05:42;;;;;;;;;;;;;;;;;;10481918;28;20508;-74
2023/01/30 07:10:46;;;;;;;23.13;7.63;;;;;;;;;;10483434;28;19982;-75
2023/01/30 07:15:49;;;;;;;24.52;9.05;;;;;;;;;;10494760;28;20036;-75
2023/01/30 07:20:51;;;;;;;26.87;10.90;;;;;;;;;;10487124;28;20413;-74
2023/01/30 07:25:55;;;;;;;16.23;6.53;;;;;;;;;;10486338;28;20041;-75
2023/01/30 07:30:59;;;;;;;18.85;5.60;;;;;;;;;;10479601;28;20047;-75
2023/01/30 07:36:01;;;;;;;21.58;7.53;;;;;;;;;;10482933;28;20044;-75
2023/01/30 07:41:06;;;;;;;19.13;6.43;;;;;;;;;;10480034;28;20183;-75
2023/01/30 07:46:08;;;;;;;12.57;5.50;;;;;;;;;;10482970;28;20051;-75
2023/01/30 07:51:11;;;;;;;23.10;7.90;;;;;;;;;;10493037;28;20044;-74
2023/01/30 07:56:21;;;;;;;17.03;7.23;;;;;;;;;;10466827;28;20470;-76
2023/01/30 08:01:24;;;;;;;16.27;6.83;;;;;;;;;;10480928;28;20029;-75
2023/01/30 08:06:27;;;;;;;22.13;7.90;;;;;;;;;;10483883;28;20040;-75
2023/01/30 08:11:31;;;;;;;19.43;8.20;;;;;;;;;;10485759;28;20044;-75
2023/01/30 08:16:34;;;;;;;18.67;7.88;;;;;;;;;;10483155;28;20041;-74
2023/01/30 08:21:39;;;;;;;20.77;8.77;;;;;;;;;;10465635;28;20036;-74
2023/01/30 08:26:47;;;;;;;14.43;5.97;;;;;;;;;;10485695;28;20040;-75
2023/01/30 08:31:50;;;;;;;19.55;7.95;;;;;;;;;;10492243;28;20039;-77
2023/01/30 08:36:52;;;;;;;14.30;6.20;;;;;;;;;;10493397;28;20047;-74
2023/01/30 08:41:57;;;;;;;17.92;6.93;;;;;;;;;;10480742;28;20037;-75
2023/01/30 08:46:59;;;;;;;;;;;;;;;;;;10477616;28;20064;-75
2023/01/30 08:52:02;;;;;;;19.67;7.45;;;;;;;;;;10486414;28;20192;-74
2023/01/30 09:02:59;;;;;;;14.95;6.85;;;;;;;;;;10469342;28;20047;-74
2023/01/30 09:08:02;;;;;;;16.63;8.13;;;;;;;;;;10484194;28;20147;-76
2023/01/30 09:13:05;;;;;;;17.70;7.07;;;;;;;;;;10479537;28;20033;-75
2023/01/30 09:18:09;;;;;;;16.52;6.63;;;;;;;;;;10498157;28;20041;-75
2023/01/30 09:23:11;;;;;;;18.38;8.70;;;;;;;;;;10491874;28;20028;-75
2023/01/30 09:28:14;;;;;;;19.15;7.85;;;;;;;;;;10498953;28;20401;-74
2023/01/30 09:33:19;;;;;;;12.18;5.65;;;;;;;;;;10494638;28;20043;-74
2023/01/30 09:38:21;;;;;;;14.88;7.82;;;;;;;;;;10491465;28;20055;-74
2023/01/30 09:43:28;;;;;;;16.10;6.60;;;;;;;;;;10487130;28;20505;-74
2023/01/30 09:48:35;;;;;;;12.77;6.18;;;;;;;;;;10483181;28;20106;-75
2023/01/30 09:53:48;;;;;;;11.15;4.85;;;;;;;;;;10495288;28;20044;-75
2023/01/30 09:58:52;;;;;;;18.67;6.32;;;;;;;;;;10478298;28;20226;-74
2023/01/30 10:04:01;;;;;;;13.75;6.05;;;;;;;;;;10483143;28;20528;-75
2023/01/30 10:09:08;;;;;;;14.15;6.30;;;;;;;;;;10486569;28;20090;-74
2023/01/30 10:14:20;;;;;;;19.13;5.70;;;;;;;;;;10487715;28;20262;-75
2023/01/30 10:19:31;;;;;;;13.68;6.57;;;;;;;;;;10482033;28;20036;-75
2023/01/30 10:24:45;;;;;;;11.90;5.68;;;;;;;;;;10485017;28;20663;-75
2023/01/30 10:29:51;;;;;;;11.55;6.70;;;;;;;;;;10491633;28;20067;-75
2023/01/30 10:34:57;;;;;;;15.18;5.97;;;;;;;;;;10489873;28;20181;-75
2023/01/30 10:40:04;;;;;;;16.25;7.30;;;;;;;;;;10481917;28;20131;-75
2023/01/30 10:45:10;;;;;;;9.73;4.68;;;;;;;;;;10485274;28;20029;-76
2023/01/30 10:50:17;;;;;;;9.88;4.72;;;;;;;;;;10488665;28;20379;-77
2023/01/30 10:55:26;;;;;;;14.02;5.25;;;;;;;;;;10488627;28;20044;-77
2023/01/30 11:00:40;;;;;;;8.60;3.80;;;;;;;;;;10480073;28;20407;-75
2023/01/30 11:05:48;;;;;;;8.60;4.22;;;;;;;;;;10492362;28;20075;-75
2023/01/30 11:10:52;;;;;;;11.40;4.28;;;;;;;;;;10487897;28;20674;-74
2023/01/30 11:15:56;;;;;;;12.40;5.20;;;;;;;;;;10494600;28;20047;-75
2023/01/30 11:21:04;;;;;;;14.43;5.85;;;;;;;;;;10493762;28;20045;-76
2023/01/30 11:26:06;;;;;;;9.52;4.15;;;;;;;;;;10491351;28;20033;-75
2023/01/30 11:31:16;;;;;;;11.07;4.97;;;;;;;;;;10486956;28;20509;-76
2023/01/30 11:36:27;;;;;;;11.40;4.97;;;;;;;;;;10483798;28;20044;-75
2023/01/30 11:41:30;;;;;;;9.88;3.60;;;;;;;;;;10484852;28;20045;-74
2023/01/30 11:46:34;;;;;;;9.70;3.07;;;;;;;;;;10487590;28;20080;-74
2023/01/30 11:51:39;;;;;;;8.52;3.97;;;;;;;;;;10474652;28;20040;-74
2023/01/30 11:56:47;;;;;;;12.93;4.93;;;;;;;;;;10484406;28;20508;-75
2023/01/30 12:01:50;;;;;;;10.18;4.20;;;;;;;;;;10492442;28;20416;-75
2023/01/30 12:07:06;;;;;;;7.32;2.83;;;;;;;;;;10490716;28;20051;-75
2023/01/30 12:12:27;;;;;;;7.07;2.90;;;;;;;;;;10486857;28;20036;-75
2023/01/30 12:17:35;;;;;;;14.32;3.38;;;;;;;;;;10486259;28;20040;-74
2023/01/30 12:22:42;;;;;;;7.43;3.42;;;;;;;;;;10482783;28;20516;-74
2023/01/30 12:27:48;;;;;;;11.07;5.28;;;;;;;;;;10483217;28;20120;-75
2023/01/30 12:32:52;;;;;;;10.70;5.18;;;;;;;;;;10483613;28;20048;-75
2023/01/30 12:38:02;;;;;;;9.35;4.68;;;;;;;;;;10482989;28;20111;-75
2023/01/30 12:43:14;;;;;;;9.40;3.45;;;;;;;;;;10486559;28;20121;-74
2023/01/30 12:48:28;;;;;;;10.98;3.88;;;;;;;;;;10480268;28;20041;-74
2023/01/30 12:53:35;;;;;;;8.85;3.80;;;;;;;;;;10485453;28;20047;-75
2023/01/30 12:58:42;;;;;;;9.90;4.18;;;;;;;;;;10480718;28;20036;-76
2023/01/30 13:03:50;;;;;;;10.00;3.95;;;;;;;;;;10493472;28;20439;-75
2023/01/30 13:09:03;;;;;;;7.88;3.25;;;;;;;;;;10475647;28;20041;-76
2023/01/30 13:14:09;;;;;;;7.97;3.38;;;;;;;;;;10467106;28;20045;-75
2023/01/30 13:19:16;;;;;;;6.47;3.38;;;;;;;;;;10497571;28;20043;-75
2023/01/30 13:24:25;;;;;;;7.97;2.97;;;;;;;;;;10478706;28;20045;-74
2023/01/30 13:29:30;;;;;;;7.70;2.67;;;;;;;;;;10480540;28;20049;-74
2023/01/30 13:34:34;;;;;;;8.95;3.55;;;;;;;;;;10481758;28;20040;-76
2023/01/30 13:39:40;;;;;;;10.10;3.60;;;;;;;;;;10477832;28;20520;-76
2023/01/30 13:44:45;;;;;;;8.43;3.28;;;;;;;;;;10482390;28;20072;-76
2023/01/30 13:49:52;;;;;;;7.77;3.20;;;;;;;;;;10482304;28;20552;-75
2023/01/30 13:55:01;;;;;;;7.43;2.83;;;;;;;;;;10480253;28;20060;-75
2023/01/30 14:00:17;;;;;;;5.88;2.85;;;;;;;;;;10473565;28;20040;-75
2023/01/30 14:05:53;;;;;;;6.05;2.85;;;;;;;;;;10478765;28;20043;-77
2023/01/30 14:10:57;;;;;;;8.05;3.78;;;;;;;;;;10486447;28;20096;-75
2023/01/30 14:16:01;;;;;;;8.05;3.10;;;;;;;;;;10488618;28;20101;-75
2023/01/30 14:21:23;;;;;;;5.53;2.15;;;;;;;;;;10491955;28;20122;-75
2023/01/30 14:26:53;;;;;;;5.00;2.53;;;;;;;;;;10483080;28;20059;-76
2023/01/30 14:31:57;;;;;;;5.72;2.13;;;;;;;;;;10493414;28;20079;-74
2023/01/30 14:37:00;;;;;;;6.20;2.38;;;;;;;;;;10493008;28;20131;-76
2023/01/30 14:42:23;;;;;;;5.57;2.67;;;;;;;;;;10485204;28;20240;-76
2023/01/30 14:47:28;;;;;;;8.13;2.80;;;;;;;;;;10484538;28;20063;-76
2023/01/30 14:52:48;;;;;;;6.55;3.17;;;;;;;;;;10497270;28;20036;-76
2023/01/30 14:57:53;;;;;;;7.75;2.65;;;;;;;;;;10495620;28;20048;-74
2023/01/30 15:02:59;;;;;;;4.93;2.30;;;;;;;;;;10486472;28;20379;-74
2023/01/30 15:08:10;;;;;;;8.73;3.30;;;;;;;;;;10508919;28;20045;-74
2023/01/30 15:13:29;;;;;;;5.50;2.10;;;;;;;;;;10500066;28;20040;-75
2023/01/30 15:18:54;;;;;;;8.07;3.15;;;;;;;;;;10493893;28;20393;-75
2023/01/30 15:24:49;;;;;;;7.05;3.30;;;;;;;;;;10495119;28;20037;-73
2023/01/30 15:30:15;;;;;;;9.07;3.80;;;;;;;;;;10503418;28;20052;-74
2023/01/30 15:46:12;;;;;;;9.38;3.08;;;;;;;;;;10493949;28;20059;-75
2023/01/30 15:51:32;;;;;;;9.88;3.88;;;;;;;;;;10486966;28;20118;-75
2023/01/30 15:57:07;;;;;;;13.88;3.03;;;;;;;;;;10489839;28;20047;-74
2023/01/30 16:02:24;;;;;;;7.88;3.65;;;;;;;;;;10493398;28;20048;-74
2023/01/30 16:07:33;;;;;;;8.00;3.03;;;;;;;;;;10491929;28;20032;-74
2023/01/30 16:12:45;;;;;;;11.63;3.92;;;;;;;;;;10499169;28;20036;-75
2023/01/30 16:17:59;;;;;;;9.73;4.20;;;;;;;;;;10443663;28;20048;-76
2023/01/30 16:23:19;;;;;;;7.18;2.92;;;;;;;;;;10475862;28;20146;-76
2023/01/30 16:28:39;;;;;;;9.13;3.70;;;;;;;;;;10476679;28;20071;-75
2023/01/30 16:33:59;;;;;;;9.60;3.53;;;;;;;;;;10480465;28;20116;-74
2023/01/30 16:39:30;;;;;;;9.63;4.33;;;;;;;;;;10483812;28;20062;-75
2023/01/30 16:44:50;;;;;;;6.87;2.60;;;;;;;;;;10493564;28;20075;-76
2023/01/30 16:49:59;;;;;;;7.30;3.27;;;;;;;;;;10494943;28;20392;-75
2023/01/30 16:55:24;;;;;;;8.97;3.20;;;;;;;;;;10489131;28;20706;-76
2023/01/30 17:00:38;;;;;;;14.03;3.30;;;;;;;;;;10485874;28;20124;-75
2023/01/30 17:05:46;;;;;;;11.20;4.27;;;;;;;;;;10487847;28;20043;-75
2023/01/30 17:11:04;;;;;;;11.60;5.30;;;;;;;;;;10492260;28;20040;-76
2023/01/30 17:16:19;;;;;;;9.43;3.40;;;;;;;;;;10502627;28;20039;-76
2023/01/30 17:21:29;;;;;;;10.10;3.80;;;;;;;;;;10488282;28;20076;-76
2023/01/30 17:26:39;;;;;;;12.27;4.13;;;;;;;;;;10476305;28;20036;-76
2023/01/30 17:31:55;;;;;;;11.40;4.10;;;;;;;;;;10502849;28;20105;-75
2023/01/30 17:37:05;;;;;;;10.27;4.13;;;;;;;;;;10478584;28;20048;-75
2023/01/30 17:42:10;;;;;;;10.57;4.63;;;;;;;;;;10482660;28;20044;-75
2023/01/30 17:47:20;;;;;;;7.37;2.77;;;;;;;;;;10486891;28;20085;-75
2023/01/30 17:52:37;;;;;;;10.80;4.60;;;;;;;;;;10478145;28;20076;-76
2023/01/30 17:57:55;;;;;;;6.77;3.00;;;;;;;;;;10474908;28;20133;-76
2023/01/30 18:03:26;;;;;;;11.30;4.57;;;;;;;;;;10474620;28;20387;-75
2023/01/30 18:08:34;;;;;;;10.43;4.70;;;;;;;;;;10475338;28;20500;-75
2023/01/30 18:13:49;;;;;;;8.50;3.83;;;;;;;;;;10479363;28;20130;-75
2023/01/30 18:19:04;;;;;;;8.27;3.83;;;;;;;;;;10477439;28;20412;-75
2023/01/30 18:24:33;;;;;;;8.90;3.63;;;;;;;;;;10479631;28;20232;-75
2023/01/30 18:29:47;;;;;;;15.93;3.53;;;;;;;;;;10482761;28;20067;-74
2023/01/30 18:34:57;;;;;;;6.07;2.83;;;;;;;;;;10493693;28;20056;-75
2023/01/30 18:40:24;;;;;;;14.40;5.43;;;;;;;;;;10461573;28;20080;-76
2023/01/30 18:45:32;;;;;;;12.43;6.27;;;;;;;;;;10455023;28;20599;-75
2023/01/30 18:51:03;;;;;;;7.47;2.47;;;;;;;;;;10492595;28;20145;-75
2023/01/30 18:56:17;;;;;;;8.07;2.90;;;;;;;;;;10493193;28;20135;-74
2023/01/30 19:01:44;;;;;;;6.27;2.30;;;;;;;;;;10477560;28;20151;-74
2023/01/30 19:06:50;;;;;;;9.00;3.47;;;;;;;;;;10475815;28;20089;-75
2023/01/30 19:17:29;;;;;;;7.72;2.83;;;;;;;;;;10491353;28;20128;-75
2023/01/30 19:22:42;;;;;;;9.63;3.60;;;;;;;;;;10482209;28;20403;-75
2023/01/30 19:27:59;;;;;;;10.47;3.57;;;;;;;;;;10466011;28;20044;-75
2023/01/30 19:33:03;;;;;;;9.37;3.33;;;;;;;;;;10482968;28;20423;-75
2023/01/30 19:38:22;;;;;;;7.33;3.47;;;;;;;;;;10482155;28;20046;-76
2023/01/30 19:43:37;;;;;;;8.40;3.33;;;;;;;;;;10484465;28;20059;-75
2023/01/30 19:48:48;;;;;;;4.95;2.80;;;;;;;;;;10462988;28;20164;-76
2023/01/30 19:53:58;;;;;;;10.65;3.53;;;;;;;;;;10478745;28;20044;-75
2023/01/30 19:59:02;;;;;;;5.57;2.67;;;;;;;;;;10479972;28;20040;-75
2023/01/30 20:04:06;;;;;;;9.30;3.50;;;;;;;;;;10484917;28;20085;-75
2023/01/30 20:09:14;;;;;;;6.10;2.47;;;;;;;;;;10486395;28;20131;-77
2023/01/30 20:14:38;;;;;;;5.67;2.43;;;;;;;;;;10479235;28;20045;-73
2023/01/30 20:19:57;;;;;;;7.37;3.90;;;;;;;;;;10477166;28;20095;-75
2023/01/30 20:25:05;;;;;;;5.97;2.63;;;;;;;;;;10483803;28;20048;-75
2023/01/30 20:30:18;;;;;;;6.87;2.70;;;;;;;;;;10489726;28;20060;-74
2023/01/30 20:35:27;;;;;;;5.77;3.33;;;;;;;;;;10484868;28;20115;-74
2023/01/30 20:40:31;;;;;;;8.40;3.33;;;;;;;;;;10490761;28;20094;-73
2023/01/30 20:45:40;;;;;;;5.03;2.67;;;;;;;;;;10432937;28;20470;-74
2023/01/30 20:50:45;;;;;;;10.13;3.17;;;;;;;;;;10487929;28;20786;-73
2023/01/30 20:55:54;;;;;;;4.80;2.87;;;;;;;;;;10478110;28;20229;-76
2023/01/30 21:01:07;;;;;;;3.53;1.83;;;;;;;;;;10474886;28;20041;-75
2023/01/30 21:06:14;;;;;;;10.50;4.10;;;;;;;;;;10493282;28;20056;-73
2023/01/30 21:11:42;;;;;;;8.35;3.50;;;;;;;;;;10480760;28;20480;-75
2023/01/30 21:16:53;;;;;;;5.10;2.60;;;;;;;;;;10488622;28;20045;-76
2023/01/30 21:22:06;;;;;;;6.37;2.67;;;;;;;;;;10473665;28;20044;-76
2023/01/30 21:27:09;;;;;;;7.97;3.63;;;;;;;;;;10470895;28;20040;-74
2023/01/30 21:32:21;;;;;;;5.40;2.67;;;;;;;;;;10484049;28;20438;-76
2023/01/30 21:48:31;;;;;;;6.43;2.97;;;;;;;;;;10362712;28;20560;-75
2023/01/30 21:53:36;;;;;;;6.00;2.63;;;;;;;;;;10451716;28;20052;-74
2023/01/30 21:58:42;;;;;;;3.10;1.70;;;;;;;;;;10489323;28;20032;-74
2023/01/30 22:03:49;;;;;;;9.13;3.67;;;;;;;;;;10483753;28;20040;-74
2023/01/30 22:08:57;;;;;;;8.37;3.30;;;;;;;;;;10474166;28;20451;-74
2023/01/30 22:14:07;;;;;;;6.10;3.33;;;;;;;;;;10474827;28;20055;-73
2023/01/30 22:19:22;;;;;;;8.47;1.70;;;;;;;;;;10464999;28;20039;-74
2023/01/30 22:24:35;;;;;;;4.27;2.17;;;;;;;;;;10481272;28;20478;-73
2023/01/30 22:29:41;;;;;;;5.27;2.73;;;;;;;;;;10462640;28;21278;-74
2023/01/30 22:34:49;;;;;;;5.27;2.80;;;;;;;;;;10458431;28;20055;-74
2023/01/30 22:39:53;;;;;;;6.63;2.80;;;;;;;;;;10489971;28;20109;-74
2023/01/30 22:44:58;;;;;;;5.28;2.15;;;;;;;;;;10468102;28;20358;-74
2023/01/30 22:50:06;;;;;;;7.87;2.87;;;;;;;;;;10492005;28;20074;-76
2023/01/30 22:55:11;;;;;;;6.60;2.77;;;;;;;;;;10493811;28;20036;-75
2023/01/30 23:00:15;;;;;;;6.18;2.40;;;;;;;;;;10486371;28;20040;-75
2023/01/30 23:05:29;;;;;;;5.70;2.53;;;;;;;;;;10484578;28;20139;-74
2023/01/30 23:10:33;;;;;;;7.67;2.77;;;;;;;;;;10500942;28;20036;-73
2023/01/30 23:15:41;;;;;;;5.38;2.03;;;;;;;;;;10492731;28;20037;-74
2023/01/30 23:21:02;;;;;;;4.37;2.03;;;;;;;;;;10484407;28;20060;-75
2023/01/30 23:26:14;;;;;;;4.23;2.07;;;;;;;;;;10472816;28;20036;-75
2023/01/30 23:31:21;;;;;;;5.80;1.90;;;;;;;;;;10488374;28;20061;-74
2023/01/30 23:36:29;;;;;;;6.00;2.37;;;;;;;;;;10464076;28;20053;-74
2023/01/30 23:41:41;;;;;;;9.07;3.40;;;;;;;;;;10492824;28;20075;-74
2023/01/30 23:46:45;;;;;;;7.57;2.90;;;;;;;;;;10470275;28;20071;-74
2023/01/30 23:51:51;;;;;;;4.20;2.13;;;;;;;;;;10485204;28;20122;-75
2023/01/30 23:57:05;;;;;;;6.53;3.23;;;;;;;;;;10484893;28;20470;-73
